sensor_id;sensor_type;location;lat;lon;timestamp;pressure;altitude;pressure_sealevel;temperature;humidity
33286;BME280;19656;50.096;20.014;2022-08-06T00:02:23;98736.46;;;23.53;53.50
33286;BME280;19656;50.096;20.014;2022-08-06T00:07:34;98733.73;;;23.52;53.66
33286;BME280;19656;50.096;20.014;2022-08-06T00:12:49;98733.23;;;23.51;53.76
33286;BME280;19656;50.096;20.014;2022-08-06T00:17:52;98739.81;;;23.51;53.84
33286;BME280;19656;50.096;20.014;2022-08-06T00:22:58;98740.64;;;23.48;53.97
33286;BME280;19656;50.096;20.014;2022-08-06T00:28:03;98744.36;;;23.43;54.02
33286;BME280;19656;50.096;20.014;2022-08-06T00:33:12;98745.42;;;23.35;54.06
33286;BME280;19656;50.096;20.014;2022-08-06T00:38:17;98742.67;;;23.29;54.02
33286;BME280;19656;50.096;20.014;2022-08-06T00:43:21;98743.88;;;23.23;54.16
33286;BME280;19656;50.096;20.014;2022-08-06T00:48:24;98747.40;;;23.16;54.33
33286;BME280;19656;50.096;20.014;2022-08-06T00:53:48;98752.89;;;23.10;54.44
33286;BME280;19656;50.096;20.014;2022-08-06T00:58:56;98751.65;;;23.02;54.47
33286;BME280;19656;50.096;20.014;2022-08-06T01:04:05;98746.92;;;22.94;54.70
33286;BME280;19656;50.096;20.014;2022-08-06T01:09:09;98745.55;;;22.89;54.85
33286;BME280;19656;50.096;20.014;2022-08-06T01:14:12;98744.34;;;22.85;55.01
33286;BME280;19656;50.096;20.014;2022-08-06T01:19:48;98746.84;;;22.84;55.06
33286;BME280;19656;50.096;20.014;2022-08-06T01:30:20;98749.30;;;22.86;55.26
33286;BME280;19656;50.096;20.014;2022-08-06T01:35:35;98748.39;;;22.84;55.24
33286;BME280;19656;50.096;20.014;2022-08-06T01:40:50;98744.94;;;22.80;55.31
33286;BME280;19656;50.096;20.014;2022-08-06T01:45:55;98748.25;;;22.75;55.29
33286;BME280;19656;50.096;20.014;2022-08-06T01:51:01;98749.06;;;22.67;55.42
33286;BME280;19656;50.096;20.014;2022-08-06T01:56:06;98747.80;;;22.60;55.47
33286;BME280;19656;50.096;20.014;2022-08-06T02:01:12;98747.69;;;22.54;55.63
33286;BME280;19656;50.096;20.014;2022-08-06T02:06:26;98746.80;;;22.46;55.62
33286;BME280;19656;50.096;20.014;2022-08-06T02:11:34;98747.27;;;22.37;55.69
33286;BME280;19656;50.096;20.014;2022-08-06T02:16:58;98766.27;;;22.28;55.86
33286;BME280;19656;50.096;20.014;2022-08-06T02:22:19;98769.98;;;22.31;56.28
33286;BME280;19656;50.096;20.014;2022-08-06T02:27:30;98769.82;;;22.48;56.54
33286;BME280;19656;50.096;20.014;2022-08-06T02:32:45;98768.02;;;22.70;56.58
33286;BME280;19656;50.096;20.014;2022-08-06T02:38:01;98764.69;;;22.87;56.40
33286;BME280;19656;50.096;20.014;2022-08-06T02:43:14;98772.40;;;22.97;56.23
33286;BME280;19656;50.096;20.014;2022-08-06T02:48:31;98785.15;;;22.97;56.10
33286;BME280;19656;50.096;20.014;2022-08-06T02:53:43;98786.42;;;22.98;56.07
33286;BME280;19656;50.096;20.014;2022-08-06T02:59:09;98792.15;;;22.99;55.89
33286;BME280;19656;50.096;20.014;2022-08-06T03:04:15;98805.45;;;22.98;56.09
33286;BME280;19656;50.096;20.014;2022-08-06T03:09:18;98805.27;;;22.97;56.12
33286;BME280;19656;50.096;20.014;2022-08-06T03:14:25;98814.51;;;23.01;56.40
33286;BME280;19656;50.096;20.014;2022-08-06T03:19:50;98819.23;;;23.12;56.54
33286;BME280;19656;50.096;20.014;2022-08-06T03:25:01;98827.34;;;23.23;56.65
33286;BME280;19656;50.096;20.014;2022-08-06T03:30:05;98840.64;;;23.41;56.69
33286;BME280;19656;50.096;20.014;2022-08-06T03:35:11;98850.14;;;23.58;56.56
33286;BME280;19656;50.096;20.014;2022-08-06T03:40:36;98850.70;;;23.69;56.40
33286;BME280;19656;50.096;20.014;2022-08-06T03:45:51;98852.39;;;23.79;56.30
33286;BME280;19656;50.096;20.014;2022-08-06T03:51:02;98863.59;;;23.78;56.30
33286;BME280;19656;50.096;20.014;2022-08-06T03:56:15;98866.84;;;23.80;56.28
33286;BME280;19656;50.096;20.014;2022-08-06T04:01:21;98871.36;;;23.82;56.33
33286;BME280;19656;50.096;20.014;2022-08-06T04:06:26;98883.04;;;23.88;56.26
33286;BME280;19656;50.096;20.014;2022-08-06T04:11:31;98893.59;;;23.88;56.35
33286;BME280;19656;50.096;20.014;2022-08-06T04:16:54;98901.54;;;23.89;56.40
33286;BME280;19656;50.096;20.014;2022-08-06T04:21:59;98904.19;;;23.80;56.18
33286;BME280;19656;50.096;20.014;2022-08-06T04:27:23;98903.55;;;23.60;56.31
33286;BME280;19656;50.096;20.014;2022-08-06T04:32:33;98916.55;;;23.46;56.47
33286;BME280;19656;50.096;20.014;2022-08-06T04:37:37;98920.48;;;23.37;56.80
33286;BME280;19656;50.096;20.014;2022-08-06T04:42:42;98930.77;;;23.35;56.97
33286;BME280;19656;50.096;20.014;2022-08-06T04:47:47;98935.38;;;23.32;57.23
33286;BME280;19656;50.096;20.014;2022-08-06T04:52:50;98946.45;;;23.36;57.37
33286;BME280;19656;50.096;20.014;2022-08-06T04:57:54;98952.92;;;23.35;57.45
33286;BME280;19656;50.096;20.014;2022-08-06T05:03:03;98963.66;;;23.34;57.45
33286;BME280;19656;50.096;20.014;2022-08-06T05:08:07;98978.30;;;23.42;57.50
33286;BME280;19656;50.096;20.014;2022-08-06T05:13:15;98988.36;;;23.56;57.69
33286;BME280;19656;50.096;20.014;2022-08-06T05:18:46;98994.17;;;23.74;57.48
33286;BME280;19656;50.096;20.014;2022-08-06T05:24:12;99008.22;;;23.85;57.29
33286;BME280;19656;50.096;20.014;2022-08-06T05:29:19;99024.52;;;23.88;57.17
33286;BME280;19656;50.096;20.014;2022-08-06T05:34:25;99042.60;;;23.90;57.04
33286;BME280;19656;50.096;20.014;2022-08-06T05:39:28;99061.38;;;23.88;57.02
33286;BME280;19656;50.096;20.014;2022-08-06T05:44:51;99072.13;;;23.90;57.08
33286;BME280;19656;50.096;20.014;2022-08-06T05:50:05;99078.64;;;23.89;57.06
33286;BME280;19656;50.096;20.014;2022-08-06T05:55:16;99093.79;;;23.88;57.04
33286;BME280;19656;50.096;20.014;2022-08-06T06:00:32;99112.71;;;23.89;57.14
33286;BME280;19656;50.096;20.014;2022-08-06T06:05:46;99121.21;;;23.87;57.03
33286;BME280;19656;50.096;20.014;2022-08-06T06:11:09;99130.57;;;23.91;57.11
33286;BME280;19656;50.096;20.014;2022-08-06T06:21:35;99147.66;;;23.95;57.22
33286;BME280;19656;50.096;20.014;2022-08-06T06:27:03;99154.96;;;23.93;57.13
33286;BME280;19656;50.096;20.014;2022-08-06T06:32:39;99159.20;;;23.96;57.21
33286;BME280;19656;50.096;20.014;2022-08-06T06:37:52;99169.83;;;23.98;57.28
33286;BME280;19656;50.096;20.014;2022-08-06T06:43:15;99174.63;;;24.06;57.32
33286;BME280;19656;50.096;20.014;2022-08-06T06:48:25;99183.91;;;24.12;57.08
33286;BME280;19656;50.096;20.014;2022-08-06T06:53:34;99194.69;;;24.13;57.14
33286;BME280;19656;50.096;20.014;2022-08-06T06:59:06;99199.55;;;24.20;57.08
33286;BME280;19656;50.096;20.014;2022-08-06T07:04:19;99207.30;;;24.24;57.28
33286;BME280;19656;50.096;20.014;2022-08-06T07:09:29;99205.41;;;24.33;57.34
33286;BME280;19656;50.096;20.014;2022-08-06T07:14:46;99212.46;;;24.47;57.49
33286;BME280;19656;50.096;20.014;2022-08-06T07:20:05;99222.28;;;24.60;57.15
33286;BME280;19656;50.096;20.014;2022-08-06T07:25:12;99229.94;;;24.67;57.16
33286;BME280;19656;50.096;20.014;2022-08-06T07:30:21;99237.36;;;24.78;57.10
33286;BME280;19656;50.096;20.014;2022-08-06T07:35:30;99237.13;;;24.91;57.06
33286;BME280;19656;50.096;20.014;2022-08-06T07:40:37;99242.41;;;25.07;56.92
33286;BME280;19656;50.096;20.014;2022-08-06T07:45:49;99253.39;;;25.17;56.69
33286;BME280;19656;50.096;20.014;2022-08-06T07:50:58;99261.32;;;25.21;56.63
33286;BME280;19656;50.096;20.014;2022-08-06T07:56:06;99267.95;;;25.23;56.40
33286;BME280;19656;50.096;20.014;2022-08-06T08:01:19;99282.58;;;25.22;56.28
33286;BME280;19656;50.096;20.014;2022-08-06T08:06:30;99287.45;;;25.22;56.11
33286;BME280;19656;50.096;20.014;2022-08-06T08:11:46;99294.27;;;25.21;55.99
33286;BME280;19656;50.096;20.014;2022-08-06T08:17:09;99304.59;;;25.25;55.91
33286;BME280;19656;50.096;20.014;2022-08-06T08:22:14;99306.69;;;25.27;55.77
33286;BME280;19656;50.096;20.014;2022-08-06T08:27:18;99309.23;;;25.29;55.64
33286;BME280;19656;50.096;20.014;2022-08-06T08:32:25;99318.98;;;25.26;55.36
33286;BME280;19656;50.096;20.014;2022-08-06T08:37:28;99319.48;;;25.28;55.37
33286;BME280;19656;50.096;20.014;2022-08-06T08:42:39;99323.63;;;25.33;55.34
33286;BME280;19656;50.096;20.014;2022-08-06T08:47:50;99323.85;;;25.36;55.27
33286;BME280;19656;50.096;20.014;2022-08-06T08:53:06;99324.39;;;25.37;55.21
33286;BME280;19656;50.096;20.014;2022-08-06T08:58:12;99328.36;;;25.44;55.04
33286;BME280;19656;50.096;20.014;2022-08-06T09:03:39;99330.67;;;25.53;55.12
33286;BME280;19656;50.096;20.014;2022-08-06T09:08:53;99340.27;;;25.56;54.81
33286;BME280;19656;50.096;20.014;2022-08-06T09:14:08;99342.81;;;25.56;54.52
33286;BME280;19656;50.096;20.014;2022-08-06T09:19:11;99346.65;;;25.53;54.21
33286;BME280;19656;50.096;20.014;2022-08-06T09:24:15;99356.60;;;25.49;53.81
33286;BME280;19656;50.096;20.014;2022-08-06T09:29:20;99362.32;;;25.47;53.84
33286;BME280;19656;50.096;20.014;2022-08-06T09:34:35;99368.67;;;25.44;53.71
33286;BME280;19656;50.096;20.014;2022-08-06T09:39:42;99368.36;;;25.42;53.70
33286;BME280;19656;50.096;20.014;2022-08-06T09:45:12;99372.30;;;25.37;53.60
33286;BME280;19656;50.096;20.014;2022-08-06T09:50:35;99378.42;;;25.35;53.55
33286;BME280;19656;50.096;20.014;2022-08-06T09:55:38;99386.19;;;25.35;53.51
33286;BME280;19656;50.096;20.014;2022-08-06T10:00:43;99392.96;;;25.35;53.44
33286;BME280;19656;50.096;20.014;2022-08-06T10:06:06;99401.44;;;25.35;53.32
33286;BME280;19656;50.096;20.014;2022-08-06T10:11:36;99401.33;;;25.36;53.33
33286;BME280;19656;50.096;20.014;2022-08-06T10:17:10;99409.34;;;25.36;53.16
33286;BME280;19656;50.096;20.014;2022-08-06T10:22:17;99418.86;;;25.34;53.30
33286;BME280;19656;50.096;20.014;2022-08-06T10:27:29;99418.42;;;25.31;53.36
33286;BME280;19656;50.096;20.014;2022-08-06T10:32:58;99420.98;;;25.27;53.39
33286;BME280;19656;50.096;20.014;2022-08-06T10:38:05;99428.16;;;25.24;53.34
33286;BME280;19656;50.096;20.014;2022-08-06T10:43:17;99431.80;;;25.24;53.64
33286;BME280;19656;50.096;20.014;2022-08-06T10:48:21;99442.43;;;25.22;53.49
33286;BME280;19656;50.096;20.014;2022-08-06T10:53:46;99449.64;;;25.18;53.64
33286;BME280;19656;50.096;20.014;2022-08-06T10:59:12;99452.58;;;25.07;53.49
33286;BME280;19656;50.096;20.014;2022-08-06T11:04:52;99459.67;;;24.94;53.93
33286;BME280;19656;50.096;20.014;2022-08-06T11:10:08;99476.86;;;24.72;54.34
33286;BME280;19656;50.096;20.014;2022-08-06T11:15:21;99485.34;;;24.55;54.58
33286;BME280;19656;50.096;20.014;2022-08-06T11:30:50;99486.95;;;24.24;55.69
33286;BME280;19656;50.096;20.014;2022-08-06T11:35:54;99491.23;;;24.14;56.05
33286;BME280;19656;50.096;20.014;2022-08-06T11:41:07;99497.24;;;24.04;56.50
33286;BME280;19656;50.096;20.014;2022-08-06T11:46:40;99504.24;;;23.93;56.86
33286;BME280;19656;50.096;20.014;2022-08-06T11:51:57;99501.68;;;23.81;57.26
33286;BME280;19656;50.096;20.014;2022-08-06T12:07:47;99512.83;;;23.74;58.06
33286;BME280;19656;50.096;20.014;2022-08-06T12:13:36;99515.50;;;23.64;58.10
33286;BME280;19656;50.096;20.014;2022-08-06T12:19:02;99516.42;;;23.51;58.27
33286;BME280;19656;50.096;20.014;2022-08-06T12:24:06;99522.06;;;23.39;58.59
33286;BME280;19656;50.096;20.014;2022-08-06T12:29:09;99525.03;;;23.28;58.60
33286;BME280;19656;50.096;20.014;2022-08-06T12:34:24;99534.08;;;23.26;58.73
33286;BME280;19656;50.096;20.014;2022-08-06T12:39:38;99543.51;;;23.25;58.70
33286;BME280;19656;50.096;20.014;2022-08-06T12:45:00;99545.52;;;23.25;58.56
33286;BME280;19656;50.096;20.014;2022-08-06T12:50:20;99552.19;;;23.20;58.42
33286;BME280;19656;50.096;20.014;2022-08-06T12:55:34;99560.23;;;23.07;58.16
33286;BME280;19656;50.096;20.014;2022-08-06T13:00:39;99556.67;;;22.94;58.20
33286;BME280;19656;50.096;20.014;2022-08-06T13:05:45;99551.91;;;22.84;58.19
33286;BME280;19656;50.096;20.014;2022-08-06T13:10:51;99550.45;;;22.73;58.24
33286;BME280;19656;50.096;20.014;2022-08-06T13:16:04;99546.65;;;22.62;58.34
33286;BME280;19656;50.096;20.014;2022-08-06T13:21:19;99551.64;;;22.57;58.43
33286;BME280;19656;50.096;20.014;2022-08-06T13:26:24;99555.19;;;22.53;58.54
33286;BME280;19656;50.096;20.014;2022-08-06T13:31:29;99558.59;;;22.50;58.59
33286;BME280;19656;50.096;20.014;2022-08-06T13:36:54;99558.77;;;22.43;58.45
33286;BME280;19656;50.096;20.014;2022-08-06T13:42:09;99559.75;;;22.28;58.40
33286;BME280;19656;50.096;20.014;2022-08-06T13:47:26;99568.65;;;22.15;58.48
33286;BME280;19656;50.096;20.014;2022-08-06T13:52:49;99571.00;;;22.17;58.70
33286;BME280;19656;50.096;20.014;2022-08-06T13:58:03;99571.92;;;22.22;58.85
33286;BME280;19656;50.096;20.014;2022-08-06T14:03:06;99572.89;;;22.22;58.71
33286;BME280;19656;50.096;20.014;2022-08-06T14:08:15;99569.55;;;22.15;58.67
33286;BME280;19656;50.096;20.014;2022-08-06T14:13:36;99571.41;;;22.13;58.87
33286;BME280;19656;50.096;20.014;2022-08-06T14:18:39;99571.96;;;22.15;58.86
33286;BME280;19656;50.096;20.014;2022-08-06T14:24:02;99573.80;;;22.32;59.54
33286;BME280;19656;50.096;20.014;2022-08-06T14:29:09;99573.61;;;22.71;59.60
33286;BME280;19656;50.096;20.014;2022-08-06T14:34:33;99572.34;;;23.00;59.41
33286;BME280;19656;50.096;20.014;2022-08-06T14:39:39;99573.09;;;23.19;58.94
33286;BME280;19656;50.096;20.014;2022-08-06T14:45:02;99575.62;;;23.24;58.45
33286;BME280;19656;50.096;20.014;2022-08-06T14:50:09;99576.09;;;23.22;58.29
33286;BME280;19656;50.096;20.014;2022-08-06T14:55:12;99574.12;;;23.29;58.18
33286;BME280;19656;50.096;20.014;2022-08-06T15:00:24;99572.31;;;23.36;57.92
33286;BME280;19656;50.096;20.014;2022-08-06T15:05:38;99575.34;;;23.37;57.68
33286;BME280;19656;50.096;20.014;2022-08-06T15:11:03;99574.80;;;23.37;57.35
33286;BME280;19656;50.096;20.014;2022-08-06T15:16:15;99583.95;;;23.17;56.98
33286;BME280;19656;50.096;20.014;2022-08-06T15:21:38;99585.55;;;23.04;56.92
33286;BME280;19656;50.096;20.014;2022-08-06T15:26:57;99584.46;;;22.94;56.90
33286;BME280;19656;50.096;20.014;2022-08-06T15:32:00;99582.84;;;22.88;56.84
33286;BME280;19656;50.096;20.014;2022-08-06T15:37:19;99587.11;;;22.80;56.81
33286;BME280;19656;50.096;20.014;2022-08-06T15:42:42;99589.52;;;22.71;56.86
33286;BME280;19656;50.096;20.014;2022-08-06T15:47:45;99590.30;;;22.58;56.66
33286;BME280;19656;50.096;20.014;2022-08-06T15:52:52;99590.95;;;22.41;56.49
33286;BME280;19656;50.096;20.014;2022-08-06T15:57:55;99591.28;;;22.22;56.70
33286;BME280;19656;50.096;20.014;2022-08-06T16:03:12;99592.89;;;22.13;56.73
33286;BME280;19656;50.096;20.014;2022-08-06T16:08:15;99590.77;;;22.02;56.73
33286;BME280;19656;50.096;20.014;2022-08-06T16:13:37;99601.95;;;21.97;56.93
33286;BME280;19656;50.096;20.014;2022-08-06T16:18:41;99600.29;;;22.00;57.39
33286;BME280;19656;50.096;20.014;2022-08-06T16:23:54;99604.64;;;22.22;57.53
33286;BME280;19656;50.096;20.014;2022-08-06T16:29:05;99608.39;;;22.28;57.29
33286;BME280;19656;50.096;20.014;2022-08-06T16:34:08;99607.21;;;22.38;57.28
33286;BME280;19656;50.096;20.014;2022-08-06T16:39:13;99604.12;;;22.45;57.03
33286;BME280;19656;50.096;20.014;2022-08-06T16:44:37;99607.23;;;22.48;56.76
33286;BME280;19656;50.096;20.014;2022-08-06T16:50:00;99607.55;;;22.54;56.78
33286;BME280;19656;50.096;20.014;2022-08-06T16:55:23;99608.70;;;22.62;56.67
33286;BME280;19656;50.096;20.014;2022-08-06T17:00:26;99610.55;;;22.60;56.39
33286;BME280;19656;50.096;20.014;2022-08-06T17:05:49;99614.42;;;22.54;56.21
33286;BME280;19656;50.096;20.014;2022-08-06T17:10:54;99614.02;;;22.49;56.08
33286;BME280;19656;50.096;20.014;2022-08-06T17:16:02;99615.79;;;22.42;56.23
33286;BME280;19656;50.096;20.014;2022-08-06T17:21:05;99620.98;;;22.43;56.27
33286;BME280;19656;50.096;20.014;2022-08-06T17:26:17;99618.66;;;22.37;55.91
33286;BME280;19656;50.096;20.014;2022-08-06T17:31:36;99620.63;;;22.34;55.97
33286;BME280;19656;50.096;20.014;2022-08-06T17:36:59;99617.66;;;22.31;55.88
33286;BME280;19656;50.096;20.014;2022-08-06T17:42:22;99622.63;;;22.30;55.95
33286;BME280;19656;50.096;20.014;2022-08-06T17:47:28;99625.02;;;22.32;56.07
33286;BME280;19656;50.096;20.014;2022-08-06T17:52:50;99630.02;;;22.27;55.74
33286;BME280;19656;50.096;20.014;2022-08-06T17:57:54;99631.55;;;22.24;55.86
33286;BME280;19656;50.096;20.014;2022-08-06T18:03:17;99640.23;;;22.19;55.60
33286;BME280;19656;50.096;20.014;2022-08-06T18:08:40;99647.54;;;22.18;55.95
33286;BME280;19656;50.096;20.014;2022-08-06T18:13:53;99651.90;;;22.18;55.87
33286;BME280;19656;50.096;20.014;2022-08-06T18:18:56;99654.95;;;22.14;55.80
33286;BME280;19656;50.096;20.014;2022-08-06T18:24:00;99657.73;;;22.08;55.67
33286;BME280;19656;50.096;20.014;2022-08-06T18:29:03;99662.51;;;22.00;55.84
33286;BME280;19656;50.096;20.014;2022-08-06T18:34:08;99668.83;;;21.93;55.84
33286;BME280;19656;50.096;20.014;2022-08-06T18:39:20;99679.44;;;21.86;55.96
33286;BME280;19656;50.096;20.014;2022-08-06T18:44:43;99681.89;;;21.82;56.07
33286;BME280;19656;50.096;20.014;2022-08-06T18:49:53;99682.11;;;21.85;56.13
33286;BME280;19656;50.096;20.014;2022-08-06T18:55:00;99684.86;;;21.84;56.29
33286;BME280;19656;50.096;20.014;2022-08-06T19:00:06;99691.08;;;21.85;56.33
33286;BME280;19656;50.096;20.014;2022-08-06T19:05:20;99703.98;;;21.88;56.36
33286;BME280;19656;50.096;20.014;2022-08-06T19:10:31;99704.54;;;21.90;56.58
33286;BME280;19656;50.096;20.014;2022-08-06T19:15:34;99705.98;;;21.86;56.44
33286;BME280;19656;50.096;20.014;2022-08-06T19:20:52;99710.70;;;21.84;56.51
33286;BME280;19656;50.096;20.014;2022-08-06T19:25:56;99715.58;;;22.01;57.02
33286;BME280;19656;50.096;20.014;2022-08-06T19:31:15;99721.15;;;22.21;56.99
33286;BME280;19656;50.096;20.014;2022-08-06T19:36:40;99725.88;;;22.32;56.62
33286;BME280;19656;50.096;20.014;2022-08-06T19:41:44;99724.85;;;22.31;56.15
33286;BME280;19656;50.096;20.014;2022-08-06T19:47:04;99728.42;;;22.28;56.02
33286;BME280;19656;50.096;20.014;2022-08-06T19:52:27;99734.02;;;22.23;56.11
33286;BME280;19656;50.096;20.014;2022-08-06T19:57:30;99735.64;;;22.28;55.89
33286;BME280;19656;50.096;20.014;2022-08-06T20:02:34;99740.98;;;22.09;55.39
33286;BME280;19656;50.096;20.014;2022-08-06T20:07:52;99746.15;;;21.86;55.26
33286;BME280;19656;50.096;20.014;2022-08-06T20:13:15;99750.99;;;21.66;55.36
33286;BME280;19656;50.096;20.014;2022-08-06T20:18:20;99750.53;;;21.56;55.54
33286;BME280;19656;50.096;20.014;2022-08-06T20:23:23;99751.27;;;21.46;55.53
33286;BME280;19656;50.096;20.014;2022-08-06T20:28:30;99753.38;;;21.37;55.58
33286;BME280;19656;50.096;20.014;2022-08-06T20:33:53;99745.42;;;21.29;55.91
33286;BME280;19656;50.096;20.014;2022-08-06T20:39:02;99745.95;;;21.22;55.99
33286;BME280;19656;50.096;20.014;2022-08-06T20:44:06;99748.92;;;21.17;56.16
33286;BME280;19656;50.096;20.014;2022-08-06T20:49:10;99754.88;;;21.16;56.16
33286;BME280;19656;50.096;20.014;2022-08-06T20:54:16;99751.15;;;21.15;56.34
33286;BME280;19656;50.096;20.014;2022-08-06T20:59:19;99751.35;;;21.20;56.41
33286;BME280;19656;50.096;20.014;2022-08-06T21:04:35;99753.25;;;21.19;56.25
33286;BME280;19656;50.096;20.014;2022-08-06T21:09:58;99763.25;;;21.15;56.39
33286;BME280;19656;50.096;20.014;2022-08-06T21:15:04;99770.05;;;21.10;56.29
33286;BME280;19656;50.096;20.014;2022-08-06T21:20:27;99774.15;;;21.04;56.40
33286;BME280;19656;50.096;20.014;2022-08-06T21:25:30;99775.98;;;20.98;56.44
33286;BME280;19656;50.096;20.014;2022-08-06T21:30:48;99778.61;;;20.95;56.51
33286;BME280;19656;50.096;20.014;2022-08-06T21:35:55;99778.98;;;20.91;56.60
33286;BME280;19656;50.096;20.014;2022-08-06T21:40:59;99777.70;;;20.89;56.60
33286;BME280;19656;50.096;20.014;2022-08-06T21:46:42;99779.11;;;20.86;56.75
33286;BME280;19656;50.096;20.014;2022-08-06T21:51:52;99781.19;;;20.81;56.87
33286;BME280;19656;50.096;20.014;2022-08-06T21:56:55;99780.00;;;20.72;56.95
33286;BME280;19656;50.096;20.014;2022-08-06T22:01:59;99779.38;;;20.68;56.93
33286;BME280;19656;50.096;20.014;2022-08-06T22:07:20;99774.90;;;20.65;57.11
33286;BME280;19656;50.096;20.014;2022-08-06T22:12:26;99776.38;;;20.63;57.20
33286;BME280;19656;50.096;20.014;2022-08-06T22:17:43;99773.63;;;20.58;57.29
33286;BME280;19656;50.096;20.014;2022-08-06T22:23:05;99771.37;;;20.50;57.37
33286;BME280;19656;50.096;20.014;2022-08-06T22:28:09;99762.61;;;20.42;57.38
33286;BME280;19656;50.096;20.014;2022-08-06T22:33:25;99761.63;;;20.31;57.60
33286;BME280;19656;50.096;20.014;2022-08-06T22:38:31;99759.44;;;20.19;57.76
33286;BME280;19656;50.096;20.014;2022-08-06T22:43:34;99758.48;;;20.10;57.92
33286;BME280;19656;50.096;20.014;2022-08-06T22:48:56;99753.10;;;19.99;58.11
33286;BME280;19656;50.096;20.014;2022-08-06T22:54:00;99751.29;;;19.94;58.32
33286;BME280;19656;50.096;20.014;2022-08-06T22:59:23;99751.42;;;19.92;58.66
33286;BME280;19656;50.096;20.014;2022-08-06T23:04:46;99748.47;;;19.93;58.88
33286;BME280;19656;50.096;20.014;2022-08-06T23:09:49;99747.21;;;19.93;59.03
33286;BME280;19656;50.096;20.014;2022-08-06T23:14:54;99751.60;;;19.94;59.08
33286;BME280;19656;50.096;20.014;2022-08-06T23:19:57;99746.08;;;19.93;59.01
33286;BME280;19656;50.096;20.014;2022-08-06T23:25:00;99747.96;;;19.95;59.17
33286;BME280;19656;50.096;20.014;2022-08-06T23:30:23;99745.47;;;19.94;59.07
33286;BME280;19656;50.096;20.014;2022-08-06T23:35:27;99746.61;;;19.94;59.07
33286;BME280;19656;50.096;20.014;2022-08-06T23:40:38;99742.27;;;19.94;59.06
33286;BME280;19656;50.096;20.014;2022-08-06T23:45:43;99745.00;;;19.93;59.17
33286;BME280;19656;50.096;20.014;2022-08-06T23:50:49;99744.81;;;19.95;59.20
33286;BME280;19656;50.096;20.014;2022-08-06T23:55:55;99735.75;;;20.00;59.25
